createdAt,value
2018-12-16T00:00:50.743Z,32.93
2018-12-16T00:03:19.823Z,32.73
2018-12-16T00:05:48.956Z,33.40
2018-12-16T00:08:17.996Z,38.00
2018-12-16T00:10:47.045Z,30.07
2018-12-16T00:13:16.178Z,37.90
2018-12-16T00:15:45.253Z,33.97
2018-12-16T00:18:14.300Z,35.80
2018-12-16T00:20:43.375Z,37.67
2018-12-16T00:23:12.840Z,34.37
2018-12-16T00:25:41.918Z,31.37
2018-12-16T00:28:10.961Z,31.03
2018-12-16T00:30:40.042Z,38.03
2018-12-16T00:33:09.092Z,30.77
2018-12-16T00:35:38.168Z,30.33
2018-12-16T00:38:07.219Z,33.40
2018-12-16T00:40:36.262Z,36.37
2018-12-16T00:43:05.426Z,35.23
2018-12-16T00:45:34.560Z,34.17
2018-12-16T00:48:03.631Z,32.53
2018-12-16T00:50:32.700Z,34.87
2018-12-16T00:53:05.306Z,34.40
2018-12-16T00:55:34.365Z,36.33
2018-12-16T00:58:03.529Z,32.90
2018-12-16T01:00:32.760Z,28.33
2018-12-16T01:03:01.864Z,27.40
2018-12-16T01:05:30.896Z,33.40
2018-12-16T01:07:59.958Z,27.97
2018-12-16T01:10:29.023Z,29.27
2018-12-16T01:12:58.105Z,47.17
2018-12-16T01:15:27.161Z,29.10
2018-12-16T01:17:56.279Z,32.17
2018-12-16T01:20:25.360Z,33.57
2018-12-16T01:22:54.397Z,35.10
2018-12-16T01:25:23.473Z,29.00
2018-12-16T01:27:52.559Z,34.67
2018-12-16T01:30:21.714Z,30.33
2018-12-16T01:32:50.792Z,33.47
2018-12-16T01:35:19.912Z,32.77
2018-12-16T01:37:48.966Z,38.17
2018-12-16T01:40:18.071Z,34.77
2018-12-16T01:42:47.106Z,35.00
2018-12-16T01:45:16.177Z,38.80
2018-12-16T01:47:45.225Z,39.40
2018-12-16T01:50:14.337Z,38.70
2018-12-16T01:52:49.921Z,39.23
2018-12-16T01:55:14.494Z,38.43
2018-12-16T01:57:43.566Z,37.00
2018-12-16T02:00:12.809Z,34.27
2018-12-16T02:02:41.906Z,34.77
2018-12-16T02:05:11.010Z,37.60
2018-12-16T02:07:40.082Z,36.53
2018-12-16T02:10:09.264Z,34.47
2018-12-16T02:12:38.331Z,37.10
2018-12-16T02:15:07.490Z,36.77
2018-12-16T02:17:36.554Z,37.03
2018-12-16T02:20:06.736Z,33.80
2018-12-16T02:22:35.805Z,35.80
2018-12-16T02:25:07.233Z,34.33
2018-12-16T02:27:36.310Z,37.33
2018-12-16T02:30:05.688Z,32.10
2018-12-16T02:32:34.760Z,35.20
2018-12-16T02:35:04.925Z,35.33
2018-12-16T02:37:34.001Z,35.13
2018-12-16T02:40:03.173Z,38.73
2018-12-16T02:42:32.294Z,31.00
2018-12-16T02:45:01.365Z,35.30
2018-12-16T02:47:30.461Z,29.90
2018-12-16T02:49:59.541Z,32.53
2018-12-16T02:52:28.578Z,35.97
2018-12-16T02:54:57.676Z,38.33
2018-12-16T02:57:26.719Z,38.30
2018-12-16T02:59:55.778Z,35.93
2018-12-16T03:02:24.812Z,39.30
2018-12-16T03:04:53.894Z,35.47
2018-12-16T03:07:22.936Z,34.70
2018-12-16T03:09:52.032Z,37.00
2018-12-16T03:12:21.089Z,32.10
2018-12-16T03:14:50.167Z,33.60
2018-12-16T03:17:19.232Z,33.47
2018-12-16T03:19:48.272Z,31.63
2018-12-16T03:22:17.346Z,24.40
2018-12-16T03:24:46.393Z,22.63
2018-12-16T03:27:15.525Z,30.97
2018-12-16T03:29:44.613Z,24.70
2018-12-16T03:32:13.743Z,29.83
2018-12-16T03:34:42.798Z,27.50
2018-12-16T03:37:11.867Z,25.07
2018-12-16T03:39:40.907Z,24.80
2018-12-16T03:42:09.970Z,23.30
2018-12-16T03:44:39.001Z,21.73
2018-12-16T03:47:08.166Z,25.10
2018-12-16T03:49:37.261Z,21.20
2018-12-16T03:52:07.351Z,25.63
2018-12-16T03:54:36.392Z,23.67
2018-12-16T03:57:05.450Z,20.53
2018-12-16T03:59:34.490Z,25.07
2018-12-16T04:02:03.582Z,22.47
2018-12-16T04:04:32.891Z,30.47
2018-12-16T04:07:01.954Z,22.47
2018-12-16T04:09:30.996Z,18.97
2018-12-16T04:12:00.062Z,18.20
2018-12-16T04:14:29.093Z,23.73
2018-12-16T04:16:58.160Z,24.90
2018-12-16T04:19:27.193Z,23.57
2018-12-16T04:21:56.269Z,20.33
2018-12-16T04:24:25.390Z,21.30
2018-12-16T04:26:54.526Z,27.67
2018-12-16T04:29:23.589Z,23.07
2018-12-16T04:31:52.649Z,24.27
2018-12-16T04:34:21.686Z,24.00
2018-12-16T04:36:50.758Z,23.60
2018-12-16T04:39:19.804Z,24.83
2018-12-16T04:41:48.859Z,23.07
2018-12-16T04:44:17.926Z,22.30
2018-12-16T04:46:46.960Z,25.70
2018-12-16T04:49:16.027Z,22.83
2018-12-16T04:51:45.107Z,23.37
2018-12-16T04:54:14.142Z,24.47
2018-12-16T04:56:43.209Z,27.30
2018-12-16T04:59:12.268Z,27.23
2018-12-16T05:01:41.313Z,24.83
2018-12-16T05:04:10.381Z,26.03
2018-12-16T05:06:39.521Z,23.10
2018-12-16T05:09:08.570Z,24.83
2018-12-16T05:11:37.652Z,24.30
2018-12-16T05:14:06.738Z,24.17
2018-12-16T05:16:35.784Z,27.27
2018-12-16T05:19:04.832Z,27.60
2018-12-16T05:21:33.907Z,24.33
2018-12-16T05:24:02.966Z,23.50
2018-12-16T05:26:32.028Z,26.83
2018-12-16T05:29:01.065Z,28.73
2018-12-16T05:31:30.138Z,26.30
2018-12-16T05:33:59.252Z,24.67
2018-12-16T05:36:28.426Z,23.93
2018-12-16T05:38:57.470Z,26.63
2018-12-16T05:41:26.517Z,22.07
2018-12-16T05:43:55.659Z,21.20
2018-12-16T05:46:24.735Z,23.50
2018-12-16T05:48:53.806Z,21.13
2018-12-16T05:51:22.863Z,25.40
2018-12-16T05:53:51.913Z,22.80
2018-12-16T05:56:20.946Z,22.97
2018-12-16T05:58:50.012Z,18.20
2018-12-16T06:01:19.068Z,21.80
2018-12-16T06:03:48.137Z,20.53
2018-12-16T06:06:17.207Z,22.83
2018-12-16T06:08:46.249Z,26.50
2018-12-16T06:11:15.311Z,26.03
2018-12-16T06:13:44.390Z,20.17
2018-12-16T06:16:13.433Z,16.93
2018-12-16T06:18:42.506Z,21.67
2018-12-16T06:21:11.566Z,19.30
2018-12-16T06:23:40.628Z,25.77
2018-12-16T06:26:09.670Z,20.10
2018-12-16T06:28:38.735Z,24.40
2018-12-16T06:31:07.808Z,18.90
2018-12-16T06:33:36.911Z,24.33
2018-12-16T06:36:05.973Z,19.43
2018-12-16T06:38:35.015Z,17.17
2018-12-16T06:41:04.098Z,14.77
2018-12-16T06:43:33.157Z,22.87
2018-12-16T06:46:02.251Z,24.40
2018-12-16T06:48:31.284Z,19.53
2018-12-16T06:51:00.329Z,17.73
2018-12-16T06:53:29.395Z,20.90
2018-12-16T06:55:58.425Z,21.27
2018-12-16T06:58:27.630Z,18.13
2018-12-16T07:00:56.663Z,30.70
2018-12-16T07:03:25.734Z,28.93
2018-12-16T07:05:54.802Z,19.40
2018-12-16T07:08:23.864Z,18.70
2018-12-16T07:10:52.943Z,21.33
2018-12-16T07:13:21.988Z,21.90
2018-12-16T07:15:51.063Z,18.00
2018-12-16T07:18:20.147Z,27.73
2018-12-16T07:20:49.351Z,22.63
2018-12-16T07:23:18.413Z,22.20
2018-12-16T07:25:47.496Z,19.73
2018-12-16T07:28:16.766Z,26.10
2018-12-16T07:30:45.998Z,19.97
2018-12-16T07:33:17.004Z,22.37
2018-12-16T07:35:46.145Z,21.90
2018-12-16T07:38:15.257Z,23.13
2018-12-16T07:40:44.454Z,21.03
2018-12-16T07:43:13.493Z,22.03
2018-12-16T07:45:42.638Z,28.60
2018-12-16T07:48:11.701Z,21.40
2018-12-16T07:50:40.940Z,21.87
2018-12-16T07:53:10.024Z,21.70
2018-12-16T07:55:39.242Z,20.20
2018-12-16T07:58:08.284Z,18.23
2018-12-16T08:00:38.256Z,21.80
2018-12-16T08:03:07.637Z,20.17
2018-12-16T08:05:36.738Z,17.83
2018-12-16T08:08:05.787Z,21.27
2018-12-16T08:10:34.927Z,20.70
2018-12-16T08:13:04.015Z,20.17
2018-12-16T08:15:33.088Z,18.00
2018-12-16T08:18:02.141Z,18.03
2018-12-16T08:20:31.195Z,20.47
2018-12-16T08:23:00.254Z,23.87
2018-12-16T08:25:29.348Z,22.70
2018-12-16T08:27:58.418Z,17.40
2018-12-16T08:30:27.569Z,21.43
2018-12-16T08:32:56.613Z,17.70
2018-12-16T08:35:25.655Z,21.50
2018-12-16T08:37:54.730Z,21.73
2018-12-16T08:40:24.413Z,20.53
2018-12-16T08:42:53.481Z,20.23
2018-12-16T08:45:22.545Z,20.53
2018-12-16T08:47:51.595Z,21.67
2018-12-16T08:50:20.662Z,27.40
2018-12-16T08:52:49.739Z,22.10
2018-12-16T08:55:18.797Z,21.43
2018-12-16T08:57:47.861Z,24.27
2018-12-16T09:00:16.918Z,19.53
2018-12-16T09:02:46.006Z,22.10
2018-12-16T09:05:15.099Z,23.83
2018-12-16T09:07:45.061Z,24.20
2018-12-16T09:10:14.205Z,22.60
2018-12-16T09:12:43.270Z,23.90
2018-12-16T09:15:14.193Z,20.57
2018-12-16T09:17:43.370Z,25.37
2018-12-16T09:20:12.399Z,31.67
2018-12-16T09:22:41.463Z,23.17
2018-12-16T09:25:10.609Z,26.10
2018-12-16T09:27:39.733Z,28.97
2018-12-16T09:30:10.668Z,24.80
2018-12-16T09:32:39.743Z,24.00
2018-12-16T09:35:08.857Z,30.97
2018-12-16T09:37:37.908Z,25.83
2018-12-16T09:40:07.405Z,29.27
2018-12-16T09:42:36.457Z,28.03
2018-12-16T09:45:06.417Z,26.43
2018-12-16T09:47:35.872Z,29.70
2018-12-16T09:50:05.434Z,26.17
2018-12-16T09:52:34.526Z,28.23
2018-12-16T09:55:04.510Z,30.17
2018-12-16T09:57:33.533Z,28.10
2018-12-16T10:00:02.621Z,27.27
2018-12-16T10:02:31.673Z,34.27
2018-12-16T10:05:00.742Z,28.27
2018-12-16T10:07:29.796Z,29.40
2018-12-16T10:09:58.841Z,31.40
2018-12-16T10:12:27.926Z,30.37
2018-12-16T10:14:57.114Z,27.70
2018-12-16T10:17:26.152Z,30.80
2018-12-16T10:19:55.206Z,32.77
2018-12-16T10:22:24.244Z,31.17
2018-12-16T10:24:53.314Z,34.47
2018-12-16T10:27:22.381Z,38.67
2018-12-16T10:29:51.608Z,31.73
2018-12-16T10:32:20.665Z,36.27
2018-12-16T10:34:49.689Z,33.83
2018-12-16T10:37:18.814Z,28.97
2018-12-16T10:39:47.897Z,29.67
2018-12-16T10:42:16.982Z,30.43
2018-12-16T10:44:46.015Z,33.30
2018-12-16T10:47:15.045Z,25.20
2018-12-16T10:49:44.099Z,28.80
2018-12-16T10:52:13.146Z,29.83
2018-12-16T10:54:42.209Z,28.77
2018-12-16T10:57:11.233Z,26.53
2018-12-16T10:59:40.266Z,24.83
2018-12-16T11:02:09.316Z,30.90
2018-12-16T11:04:38.348Z,23.90
2018-12-16T11:07:07.412Z,54.33
2018-12-16T11:09:36.430Z,31.17
2018-12-16T11:12:05.558Z,46.00
2018-12-16T11:14:34.589Z,44.07
2018-12-16T11:17:03.728Z,31.93
2018-12-16T11:19:32.774Z,24.03
2018-12-16T11:22:01.911Z,20.47
2018-12-16T11:24:31.193Z,25.40
2018-12-16T11:27:02.157Z,26.20
2018-12-16T11:29:31.277Z,22.10
2018-12-16T11:32:00.318Z,22.50
2018-12-16T11:34:30.289Z,20.40
2018-12-16T11:36:59.333Z,15.37
2018-12-16T11:39:28.403Z,20.20
2018-12-16T11:41:57.417Z,18.60
2018-12-16T11:44:27.337Z,24.73
2018-12-16T11:46:56.517Z,18.67
2018-12-16T11:49:25.590Z,18.80
2018-12-16T11:51:54.720Z,20.50
2018-12-16T11:54:23.755Z,19.70
2018-12-16T11:56:52.816Z,20.30
2018-12-16T11:59:21.860Z,22.83
2018-12-16T12:01:50.922Z,17.80
2018-12-16T12:04:19.979Z,22.50
2018-12-16T12:06:49.016Z,16.40
2018-12-16T12:09:18.070Z,14.20
2018-12-16T12:11:47.117Z,15.67
2018-12-16T12:14:16.168Z,15.37
2018-12-16T12:16:45.246Z,17.73
2018-12-16T12:19:14.280Z,16.30
2018-12-16T12:21:43.336Z,15.73
2018-12-16T12:24:12.404Z,16.97
2018-12-16T12:26:41.445Z,16.17
2018-12-16T12:29:10.505Z,16.10
2018-12-16T12:31:39.522Z,16.43
2018-12-16T12:34:08.588Z,18.77
2018-12-16T12:36:37.608Z,16.33
2018-12-16T12:39:06.769Z,16.37
2018-12-16T12:41:35.821Z,18.23
2018-12-16T12:44:04.914Z,20.23
2018-12-16T12:46:33.972Z,19.50
2018-12-16T12:49:03.001Z,21.20
2018-12-16T12:51:32.078Z,18.83
2018-12-16T12:54:01.150Z,18.97
2018-12-16T12:56:30.180Z,19.17
2018-12-16T12:58:59.214Z,17.30
2018-12-16T13:01:28.261Z,19.63
2018-12-16T13:03:57.357Z,19.70
2018-12-16T13:06:26.390Z,19.77
2018-12-16T13:08:55.451Z,17.90
2018-12-16T13:11:24.515Z,20.03
2018-12-16T13:13:53.659Z,19.70
2018-12-16T13:16:22.768Z,20.70
2018-12-16T13:18:51.824Z,22.70
2018-12-16T13:21:20.856Z,22.03
2018-12-16T13:23:49.925Z,24.13
2018-12-16T13:26:19.110Z,18.67
2018-12-16T13:28:48.169Z,17.70
2018-12-16T13:31:17.237Z,19.60
2018-12-16T13:33:46.266Z,24.80
2018-12-16T13:36:15.325Z,28.50
2018-12-16T13:38:44.799Z,25.67
2018-12-16T13:41:14.902Z,24.80
2018-12-16T13:43:43.942Z,27.33
2018-12-16T13:46:13.825Z,23.90
2018-12-16T13:48:42.853Z,28.57
2018-12-16T13:51:11.917Z,30.50
2018-12-16T13:53:40.941Z,41.80
2018-12-16T13:56:09.978Z,31.80
2018-12-16T13:58:39.015Z,32.10
2018-12-16T14:01:08.749Z,28.30
2018-12-16T14:03:37.780Z,22.97
2018-12-16T14:06:06.824Z,24.13
2018-12-16T14:08:36.243Z,28.77
2018-12-16T14:11:05.412Z,30.43
2018-12-16T14:13:34.545Z,28.23
2018-12-16T14:16:03.799Z,32.90
2018-12-16T14:18:32.840Z,34.10
2018-12-16T14:21:01.912Z,35.67
2018-12-16T14:23:30.948Z,33.40
2018-12-16T14:26:00.004Z,36.23
2018-12-16T14:28:29.068Z,35.20
2018-12-16T14:30:58.101Z,56.37
2018-12-16T14:33:27.213Z,50.53
2018-12-16T14:35:56.280Z,41.20
2018-12-16T14:38:25.574Z,41.40
2018-12-16T14:40:54.637Z,44.67
2018-12-16T14:43:23.661Z,35.23
2018-12-16T14:45:52.695Z,39.77
2018-12-16T14:48:21.764Z,41.87
2018-12-16T14:50:50.798Z,36.43
2018-12-16T14:53:20.477Z,46.03
2018-12-16T14:55:55.227Z,44.57
2018-12-16T14:58:20.546Z,45.67
2018-12-16T15:00:49.603Z,43.47
2018-12-16T15:03:18.633Z,38.77
2018-12-16T15:05:47.705Z,40.07
2018-12-16T15:08:16.727Z,40.00
2018-12-16T15:10:45.796Z,46.50
2018-12-16T15:13:14.855Z,34.80
2018-12-16T15:15:43.915Z,47.70
2018-12-16T15:18:12.950Z,43.80
2018-12-16T15:20:42.016Z,43.67
2018-12-16T15:23:11.089Z,79.43
2018-12-16T15:25:40.136Z,52.13
2018-12-16T15:28:09.181Z,43.27
2018-12-16T15:30:38.319Z,44.47
2018-12-16T15:33:07.364Z,46.93
2018-12-16T15:35:36.427Z,46.20
2018-12-16T15:38:05.493Z,46.33
2018-12-16T15:40:34.524Z,39.47
2018-12-16T15:43:03.630Z,40.67
2018-12-16T15:45:32.734Z,40.70
2018-12-16T15:48:01.850Z,41.70
2018-12-16T15:50:30.924Z,47.33
2018-12-16T15:53:00.299Z,71.10
2018-12-16T15:55:29.378Z,46.70
2018-12-16T15:57:58.414Z,43.70
2018-12-16T16:00:27.498Z,40.40
2018-12-16T16:02:56.536Z,45.47
2018-12-16T16:05:25.606Z,43.03
2018-12-16T16:07:54.747Z,42.07
2018-12-16T16:10:23.838Z,44.50
2018-12-16T16:12:52.910Z,45.03
2018-12-16T16:15:21.959Z,44.20
2018-12-16T16:17:51.051Z,43.73
2018-12-16T16:20:20.098Z,45.57
2018-12-16T16:22:49.188Z,46.07
2018-12-16T16:25:20.361Z,47.13
2018-12-16T16:27:49.406Z,82.30
2018-12-16T16:30:18.444Z,47.57
2018-12-16T16:32:47.505Z,52.87
2018-12-16T16:35:16.557Z,44.27
2018-12-16T16:37:45.776Z,45.80
2018-12-16T16:40:14.850Z,53.97
2018-12-16T16:42:43.885Z,49.37
2018-12-16T16:45:13.004Z,47.80
2018-12-16T16:47:42.074Z,47.97
2018-12-16T16:50:11.181Z,43.57
2018-12-16T16:52:40.246Z,47.73
2018-12-16T16:55:09.315Z,47.37
2018-12-16T16:57:38.398Z,47.70
2018-12-16T17:00:08.692Z,46.20
2018-12-16T17:02:37.733Z,46.80
2018-12-16T17:05:06.949Z,49.60
2018-12-16T17:07:36.020Z,44.97
2018-12-16T17:10:07.010Z,49.30
2018-12-16T17:12:36.058Z,43.43
2018-12-16T17:15:05.988Z,47.87
2018-12-16T17:17:35.021Z,51.67
2018-12-16T17:20:05.290Z,47.60
2018-12-16T17:22:34.331Z,45.87
2018-12-16T17:25:03.521Z,80.93
2018-12-16T17:27:32.597Z,88.70
2018-12-16T17:30:02.291Z,47.37
2018-12-16T17:32:31.553Z,42.97
2018-12-16T17:35:00.661Z,48.80
2018-12-16T17:37:29.701Z,43.47
2018-12-16T17:39:58.736Z,46.80
2018-12-16T17:42:27.810Z,43.27
2018-12-16T17:44:56.853Z,52.17
2018-12-16T17:47:25.922Z,48.53
2018-12-16T17:49:55.000Z,48.10
2018-12-16T17:52:24.147Z,51.13
2018-12-16T17:54:53.172Z,48.30
2018-12-16T17:57:22.253Z,54.33
2018-12-16T17:59:51.300Z,49.40
2018-12-16T18:02:20.469Z,46.10
2018-12-16T18:04:49.552Z,48.50
2018-12-16T18:07:18.614Z,56.13
2018-12-16T18:09:47.696Z,122.57
2018-12-16T18:12:16.741Z,73.70
2018-12-16T18:14:45.789Z,67.13
2018-12-16T18:17:14.842Z,87.27
2018-12-16T18:19:43.910Z,80.73
2018-12-16T18:22:14.133Z,128.50
2018-12-16T18:24:43.422Z,97.37
2018-12-16T18:27:12.493Z,64.10
2018-12-16T18:29:41.537Z,48.43
2018-12-16T18:32:10.604Z,44.83
2018-12-16T18:34:39.686Z,54.00
2018-12-16T18:37:08.717Z,50.23
2018-12-16T18:39:37.785Z,42.60
2018-12-16T18:42:07.009Z,49.97
2018-12-16T18:44:36.089Z,46.03
2018-12-16T18:47:06.918Z,46.77
2018-12-16T18:49:35.986Z,48.60
2018-12-16T18:52:05.036Z,49.60
2018-12-16T18:54:35.019Z,44.50
2018-12-16T18:57:07.291Z,47.60
2018-12-16T18:59:35.214Z,48.90
2018-12-16T19:02:04.345Z,50.70
2018-12-16T19:04:35.277Z,53.63
2018-12-16T19:07:04.472Z,52.33
2018-12-16T19:09:33.588Z,41.57
2018-12-16T19:12:02.702Z,44.43
2018-12-16T19:14:32.275Z,45.83
2018-12-16T19:17:01.381Z,49.57
2018-12-16T19:19:30.439Z,43.17
2018-12-16T19:21:59.485Z,49.77
2018-12-16T19:24:28.559Z,62.43
2018-12-16T19:26:58.341Z,52.20
2018-12-16T19:29:27.961Z,58.90
2018-12-16T19:31:57.038Z,55.63
2018-12-16T19:34:26.077Z,56.17
2018-12-16T19:36:55.150Z,63.77
2018-12-16T19:39:24.218Z,60.43
2018-12-16T19:41:53.269Z,59.73
2018-12-16T19:44:22.339Z,52.27
2018-12-16T19:46:51.420Z,57.70
2018-12-16T19:49:20.511Z,62.03
2018-12-16T19:51:49.566Z,46.30
2018-12-16T19:54:19.084Z,40.23
2018-12-16T19:56:48.154Z,39.23
2018-12-16T19:59:17.245Z,39.10
2018-12-16T20:01:46.299Z,39.13
2018-12-16T20:04:17.413Z,42.73
2018-12-16T20:06:46.592Z,38.53
2018-12-16T20:09:15.892Z,40.50
2018-12-16T20:11:44.963Z,43.17
2018-12-16T20:14:14.058Z,46.10
2018-12-16T20:16:43.296Z,46.07
2018-12-16T20:19:12.355Z,56.40
2018-12-16T20:21:41.535Z,90.70
2018-12-16T20:24:10.652Z,63.70
2018-12-16T20:26:39.997Z,51.77
2018-12-16T20:29:09.411Z,49.33
2018-12-16T20:31:38.775Z,47.20
2018-12-16T20:34:07.857Z,39.43
2018-12-16T20:36:36.904Z,38.27
2018-12-16T20:39:06.995Z,45.57
2018-12-16T20:41:36.314Z,43.23
2018-12-16T20:44:05.414Z,42.33
2018-12-16T20:46:34.494Z,54.23
2018-12-16T20:49:03.826Z,41.13
2018-12-16T20:51:32.889Z,39.47
2018-12-16T20:54:01.984Z,41.00
2018-12-16T20:56:31.022Z,39.70
2018-12-16T20:59:00.175Z,43.50
2018-12-16T21:01:29.246Z,38.20
2018-12-16T21:03:58.325Z,50.63
2018-12-16T21:06:27.374Z,36.50
2018-12-16T21:08:58.432Z,42.57
2018-12-16T21:11:32.970Z,44.97
2018-12-16T21:14:07.602Z,55.10
2018-12-16T21:16:42.140Z,54.50
2018-12-16T21:19:15.428Z,50.40
2018-12-16T21:21:44.478Z,49.73
2018-12-16T21:24:13.626Z,49.97
2018-12-16T21:26:43.266Z,49.47
2018-12-16T21:29:12.356Z,49.47
2018-12-16T21:31:41.445Z,45.40
2018-12-16T21:34:10.486Z,51.10
2018-12-16T21:36:39.532Z,46.00
2018-12-16T21:39:08.594Z,50.40
2018-12-16T21:41:37.677Z,50.73
2018-12-16T21:44:06.713Z,47.23
2018-12-16T21:46:35.790Z,45.10
2018-12-16T21:49:04.925Z,46.27
2018-12-16T21:51:33.998Z,48.83
2018-12-16T21:54:03.078Z,47.17
2018-12-16T21:56:32.130Z,55.37
2018-12-16T21:59:01.213Z,52.80
2018-12-16T22:01:30.949Z,52.63
2018-12-16T22:04:00.026Z,56.93
2018-12-16T22:06:30.100Z,52.53
2018-12-16T22:08:59.164Z,55.07
2018-12-16T22:11:28.219Z,63.60
2018-12-16T22:13:57.285Z,74.33
2018-12-16T22:16:26.360Z,94.17
2018-12-16T22:18:55.410Z,95.53
2018-12-16T22:21:24.487Z,106.73
2018-12-16T22:23:53.529Z,100.13
2018-12-16T22:26:22.668Z,80.50
2018-12-16T22:28:51.786Z,76.70
2018-12-16T22:31:20.893Z,60.93
2018-12-16T22:33:50.028Z,59.80
2018-12-16T22:36:19.100Z,53.63
2018-12-16T22:38:48.430Z,48.57
2018-12-16T22:41:17.491Z,52.70
2018-12-16T22:43:47.001Z,53.37
2018-12-16T22:46:16.433Z,52.50
2018-12-16T22:48:45.504Z,47.00
2018-12-16T22:51:14.589Z,48.87
2018-12-16T22:53:43.620Z,50.20
2018-12-16T22:56:12.690Z,50.37
2018-12-16T22:58:41.733Z,47.80
2018-12-16T23:01:16.961Z,58.87
2018-12-16T23:03:46.001Z,57.50
2018-12-16T23:06:15.071Z,55.90
2018-12-16T23:08:44.129Z,61.43
2018-12-16T23:11:13.241Z,58.00
2018-12-16T23:13:42.284Z,59.70
2018-12-16T23:16:11.322Z,60.80
2018-12-16T23:18:40.860Z,56.60
2018-12-16T23:21:11.212Z,55.03
2018-12-16T23:23:40.455Z,48.60
2018-12-16T23:26:09.525Z,57.57
2018-12-16T23:28:38.575Z,49.97
2018-12-16T23:31:07.712Z,51.33
2018-12-16T23:33:36.758Z,43.57
2018-12-16T23:36:05.885Z,53.00
2018-12-16T23:38:34.945Z,49.80
2018-12-16T23:41:04.073Z,48.70
2018-12-16T23:43:33.115Z,49.00
2018-12-16T23:46:02.193Z,42.53
2018-12-16T23:48:31.230Z,46.77
2018-12-16T23:51:00.270Z,44.97
2018-12-16T23:53:29.336Z,38.87
2018-12-16T23:55:58.372Z,40.40
2018-12-16T23:58:27.449Z,38.57
